CMA CGM IVanhoe — DFPJ2 — position and weather

sailwx.info

Track history (hours):
 
Tides and Currents Weather Stations Pressure Air Temp Water Temp Dewpoint Dewpoint Depression Visibility Wind Speed Wind Dir Waves Ship Positions

CMA CGM IVanhoe

Last reported at 2017-Sep-21 19:47 UTC. Time now 2017-Sep-25 19:14 UTC.
Position N 31°37' E 032°06'.

Length 350 m; draft 12 m.

Type: Ship (hazmat cat C). MMSI: 218844000.

Date/timePositionNaut miles runAvg speedWind from/ knotsBaromVisibWave heightAir tempDewpointWater temp
2017-Sep-21 19:47N 31°37' E 032°06'917.7
2017-Sep-21 19:18N 31°43' E 031°59'618.2
2017-Sep-21 18:57N 31°47' E 031°53'817.5
2017-Sep-21 18:30N 31°50' E 031°44'1218.2
2017-Sep-21 17:49N 31°53' E 031°30'1218.2
2017-Sep-21 17:10N 31°57' E 031°16'3718.5
2017-Sep-21 15:10N 32°07' E 030°35'418.4
2017-Sep-21 14:56N 32°09' E 030°30'1518.4
2017-Sep-21 14:06N 32°14' E 030°13'79318.6
2017-Sep-19 19:34N 36°18' E 015°00'119.3
2017-Sep-19 19:30N 36°19' E 014°58'1019.1
2017-Sep-19 19:00N 36°22' E 014°47'918.9
2017-Sep-19 18:30N 36°24' E 014°36'1019.1
2017-Sep-19 18:00N 36°27' E 014°25'1019.2
2017-Sep-19 17:31N 36°30' E 014°14'1019.4
2017-Sep-19 17:01N 36°33' E 014°02'1019.2
2017-Sep-19 16:30N 36°36' E 013°51'1019.1
2017-Sep-19 16:00N 36°39' E 013°39'918.9
2017-Sep-19 15:31N 36°42' E 013°28'918.7
2017-Sep-19 15:00N 36°45' E 013°17'918.4
2017-Sep-19 14:30N 36°48' E 013°06'8518.8
2017-Sep-19 10:00N 37°12' E 011°24'41218.7 320 / 201014.510.8 24.019.427.0
2017-Sep-18 12:00N 36°54' E 002°48'6018.5 270 / 121017.010.8 26.019.927.0
2017-Sep-18 08:43N 36°49' E 001°33'718.2
2017-Sep-18 08:21N 36°48' E 001°24'1118.9
2017-Sep-18 07:46N 36°47' E 001°11'519.4
2017-Sep-18 07:30N 36°46' E 001°04'1618.9
2017-Sep-18 06:38N 36°43' E 000°44'6919.2
2017-Sep-18 03:03N 36°33' W 000°41'2019.1
2017-Sep-18 01:59N 36°30' W 001°05'1019.7
2017-Sep-18 01:30N 36°28' W 001°17'1120.1
2017-Sep-18 00:58N 36°27' W 001°31'4919.4
2017-Sep-17 22:26N 36°20' W 002°31'818.9
2017-Sep-17 22:00N 36°19' W 002°41'7518.6
2017-Sep-17 18:00N 36°06' W 004°12'3223.6 240 / 101016.5 5.4 23.014.624.5
2017-Sep-17 16:39N 36°03' W 004°51'620.1
2017-Sep-17 16:20N 36°02' W 004°59'819.5
2017-Sep-17 15:55N 36°00' W 005°09'921.1
2017-Sep-17 15:31N 35°59' W 005°19'1423.0
2017-Sep-17 14:55N 35°55' W 005°35'922.2
2017-Sep-17 14:31N 35°53' W 005°46'1121.5
2017-Sep-17 14:01N 35°53' W 005°60'3919.4
2017-Sep-17 12:00N 35°54' W 006°48'5819.8 230 / 71019.010.8 22.013.425.0
2017-Sep-17 09:04N 36°06' W 007°58'119.6
2017-Sep-17 09:00N 36°06' W 007°59'2519.4
2017-Sep-17 07:44N 36°10' W 008°30'419.2
2017-Sep-17 07:30N 36°10' W 008°35'2418.9
2017-Sep-17 06:14N 36°14' W 009°05'518.6
2017-Sep-17 05:57N 36°15' W 009°11'3518.3
2017-Sep-17 04:01N 36°21' W 009°54'018.2
2017-Sep-17 04:00N 36°21' W 009°54'15818.4
2017-Sep-16 19:28N 36°53' W 013°07'14018.7
2017-Sep-16 12:00N 37°12' W 016°00'9122.9 060 / 151021.510.8 21.010.025.0
2017-Sep-16 08:00N 37°24' W 017°54'24917.8 030 / 151021.010.8 19.5 9.124.5
2017-Sep-15 18:02N 37°55' W 023°06'120.0
2017-Sep-15 18:00N 37°55' W 023°07'1219.0
2017-Sep-15 17:21N 37°56' W 023°22'719.2
2017-Sep-15 17:00N 37°57' W 023°31'918.8
2017-Sep-15 16:30N 37°57' W 023°42'918.9
2017-Sep-15 16:00N 37°58' W 023°54'918.8
2017-Sep-15 15:30N 37°59' W 024°06'919.0
2017-Sep-15 15:00N 37°59' W 024°18'918.7
2017-Sep-15 14:30N 37°60' W 024°30'919.0
2017-Sep-15 14:01N 38°00' W 024°42'918.9
2017-Sep-15 13:31N 38°01' W 024°54'919.0
2017-Sep-15 13:01N 38°01' W 025°06'1019.0
2017-Sep-15 12:31N 38°02' W 025°18'918.8
2017-Sep-15 12:01N 38°02' W 025°30'2139.3
2017-Sep-15 12:00N 38°00' W 025°30'1020.6 160 / 151024.510.8 24.017.626.0
2017-Sep-15 11:31N 38°03' W 025°42'1019.2
2017-Sep-15 11:00N 38°04' W 025°54'1019.2
2017-Sep-15 10:30N 38°04' W 026°07'918.8
2017-Sep-15 10:01N 38°04' W 026°18'918.7
2017-Sep-15 09:31N 38°05' W 026°30'918.9
2017-Sep-15 09:01N 38°05' W 026°42'161.2
2017-Sep-15 09:00N 38°06' W 026°42'1020.1 160 / 171023.010.8 23.014.626.0
2017-Sep-15 08:31N 38°05' W 026°54'1019.3
2017-Sep-15 08:01N 38°06' W 027°07'1018.9
2017-Sep-15 07:30N 38°06' W 027°19'918.7
2017-Sep-15 07:00N 38°07' W 027°30'1019.3
2017-Sep-15 06:30N 38°08' W 027°43'1018.9
2017-Sep-15 06:00N 38°09' W 027°55'918.5
2017-Sep-15 05:30N 38°09' W 028°06'918.7
2017-Sep-15 05:00N 38°10' W 028°18'1019.1
2017-Sep-15 04:30N 38°11' W 028°30'918.9
2017-Sep-15 04:00N 38°11' W 028°42'918.7
2017-Sep-15 03:30N 38°12' W 028°54'918.6
2017-Sep-15 03:00N 38°13' W 029°06'918.6
2017-Sep-15 02:30N 38°13' W 029°18'918.9
2017-Sep-15 02:00N 38°14' W 029°30'918.9
2017-Sep-15 01:31N 38°14' W 029°42'918.8
2017-Sep-15 01:00N 38°15' W 029°54'918.7
2017-Sep-15 00:30N 38°16' W 030°06'1019.4
2017-Sep-15 00:00N 38°16' W 030°18'4330.1
2017-Sep-15 00:00N 38°12' W 030°18'1021.4 170 / 251022.0 5.4 23.518.027.0
2017-Sep-14 23:30N 38°17' W 030°30'1018.8
2017-Sep-14 22:59N 38°17' W 030°42'4119.1
2017-Sep-14 20:50N 38°19' W 031°35'819.1
2017-Sep-14 20:23N 38°19' W 031°46'15718.7
2017-Sep-14 12:00N 38°18' W 035°06'   180 / 241017.0 5.4 23.018.327.5
Track history (hours):
 
Tides and Currents Weather Stations Pressure Air Temp Water Temp Dewpoint Dewpoint Depression Visibility Wind Speed Wind Dir Waves Ship Positions

CMA CGM IVanhoe

Last reported at 2017-Sep-21 19:47 UTC. Time now 2017-Sep-25 19:14 UTC.
Position N 31°37' E 032°06'.

Length 350 m; draft 12 m.

Type: Ship (hazmat cat C). MMSI: 218844000.

Date/timePositionNaut miles runAvg speedWind from/ knotsBaromVisibWave heightAir tempDewpointWater temp
2017-Sep-21 19:47N 31°37' E 032°06'917.7
2017-Sep-21 19:18N 31°43' E 031°59'618.2
2017-Sep-21 18:57N 31°47' E 031°53'817.5
2017-Sep-21 18:30N 31°50' E 031°44'1218.2
2017-Sep-21 17:49N 31°53' E 031°30'1218.2
2017-Sep-21 17:10N 31°57' E 031°16'3718.5
2017-Sep-21 15:10N 32°07' E 030°35'418.4
2017-Sep-21 14:56N 32°09' E 030°30'1518.4
2017-Sep-21 14:06N 32°14' E 030°13'79318.6
2017-Sep-19 19:34N 36°18' E 015°00'119.3
2017-Sep-19 19:30N 36°19' E 014°58'1019.1
2017-Sep-19 19:00N 36°22' E 014°47'918.9
2017-Sep-19 18:30N 36°24' E 014°36'1019.1
2017-Sep-19 18:00N 36°27' E 014°25'1019.2
2017-Sep-19 17:31N 36°30' E 014°14'1019.4
2017-Sep-19 17:01N 36°33' E 014°02'1019.2
2017-Sep-19 16:30N 36°36' E 013°51'1019.1
2017-Sep-19 16:00N 36°39' E 013°39'918.9
2017-Sep-19 15:31N 36°42' E 013°28'918.7
2017-Sep-19 15:00N 36°45' E 013°17'918.4
2017-Sep-19 14:30N 36°48' E 013°06'8518.8
2017-Sep-19 10:00N 37°12' E 011°24'41218.7 320 / 201014.510.8 24.019.427.0
2017-Sep-18 12:00N 36°54' E 002°48'6018.5 270 / 121017.010.8 26.019.927.0
2017-Sep-18 08:43N 36°49' E 001°33'718.2
2017-Sep-18 08:21N 36°48' E 001°24'1118.9
2017-Sep-18 07:46N 36°47' E 001°11'519.4
2017-Sep-18 07:30N 36°46' E 001°04'1618.9
2017-Sep-18 06:38N 36°43' E 000°44'6919.2
2017-Sep-18 03:03N 36°33' W 000°41'2019.1
2017-Sep-18 01:59N 36°30' W 001°05'1019.7
2017-Sep-18 01:30N 36°28' W 001°17'1120.1
2017-Sep-18 00:58N 36°27' W 001°31'4919.4
2017-Sep-17 22:26N 36°20' W 002°31'818.9
2017-Sep-17 22:00N 36°19' W 002°41'7518.6
2017-Sep-17 18:00N 36°06' W 004°12'3223.6 240 / 101016.5 5.4 23.014.624.5
2017-Sep-17 16:39N 36°03' W 004°51'620.1
2017-Sep-17 16:20N 36°02' W 004°59'819.5
2017-Sep-17 15:55N 36°00' W 005°09'921.1
2017-Sep-17 15:31N 35°59' W 005°19'1423.0
2017-Sep-17 14:55N 35°55' W 005°35'922.2
2017-Sep-17 14:31N 35°53' W 005°46'1121.5
2017-Sep-17 14:01N 35°53' W 005°60'3919.4
2017-Sep-17 12:00N 35°54' W 006°48'5819.8 230 / 71019.010.8 22.013.425.0
2017-Sep-17 09:04N 36°06' W 007°58'119.6
2017-Sep-17 09:00N 36°06' W 007°59'2519.4
2017-Sep-17 07:44N 36°10' W 008°30'419.2
2017-Sep-17 07:30N 36°10' W 008°35'2418.9
2017-Sep-17 06:14N 36°14' W 009°05'518.6
2017-Sep-17 05:57N 36°15' W 009°11'3518.3
2017-Sep-17 04:01N 36°21' W 009°54'018.2
2017-Sep-17 04:00N 36°21' W 009°54'15818.4
2017-Sep-16 19:28N 36°53' W 013°07'14018.7
2017-Sep-16 12:00N 37°12' W 016°00'9122.9 060 / 151021.510.8 21.010.025.0
2017-Sep-16 08:00N 37°24' W 017°54'24917.8 030 / 151021.010.8 19.5 9.124.5
2017-Sep-15 18:02N 37°55' W 023°06'120.0
2017-Sep-15 18:00N 37°55' W 023°07'1219.0
2017-Sep-15 17:21N 37°56' W 023°22'719.2
2017-Sep-15 17:00N 37°57' W 023°31'918.8
2017-Sep-15 16:30N 37°57' W 023°42'918.9
2017-Sep-15 16:00N 37°58' W 023°54'918.8
2017-Sep-15 15:30N 37°59' W 024°06'919.0
2017-Sep-15 15:00N 37°59' W 024°18'918.7
2017-Sep-15 14:30N 37°60' W 024°30'919.0
2017-Sep-15 14:01N 38°00' W 024°42'918.9
2017-Sep-15 13:31N 38°01' W 024°54'919.0
2017-Sep-15 13:01N 38°01' W 025°06'1019.0
2017-Sep-15 12:31N 38°02' W 025°18'918.8
2017-Sep-15 12:01N 38°02' W 025°30'2139.3
2017-Sep-15 12:00N 38°00' W 025°30'1020.6 160 / 151024.510.8 24.017.626.0
2017-Sep-15 11:31N 38°03' W 025°42'1019.2
2017-Sep-15 11:00N 38°04' W 025°54'1019.2
2017-Sep-15 10:30N 38°04' W 026°07'918.8
2017-Sep-15 10:01N 38°04' W 026°18'918.7
2017-Sep-15 09:31N 38°05' W 026°30'918.9
2017-Sep-15 09:01N 38°05' W 026°42'161.2
2017-Sep-15 09:00N 38°06' W 026°42'1020.1 160 / 171023.010.8 23.014.626.0
2017-Sep-15 08:31N 38°05' W 026°54'1019.3
2017-Sep-15 08:01N 38°06' W 027°07'1018.9
2017-Sep-15 07:30N 38°06' W 027°19'918.7
2017-Sep-15 07:00N 38°07' W 027°30'1019.3
2017-Sep-15 06:30N 38°08' W 027°43'1018.9
2017-Sep-15 06:00N 38°09' W 027°55'918.5
2017-Sep-15 05:30N 38°09' W 028°06'918.7
2017-Sep-15 05:00N 38°10' W 028°18'1019.1
2017-Sep-15 04:30N 38°11' W 028°30'918.9
2017-Sep-15 04:00N 38°11' W 028°42'918.7
2017-Sep-15 03:30N 38°12' W 028°54'918.6
2017-Sep-15 03:00N 38°13' W 029°06'918.6
2017-Sep-15 02:30N 38°13' W 029°18'918.9
2017-Sep-15 02:00N 38°14' W 029°30'918.9
2017-Sep-15 01:31N 38°14' W 029°42'918.8
2017-Sep-15 01:00N 38°15' W 029°54'918.7
2017-Sep-15 00:30N 38°16' W 030°06'1019.4
2017-Sep-15 00:00N 38°16' W 030°18'4330.1
2017-Sep-15 00:00N 38°12' W 030°18'1021.4 170 / 251022.0 5.4 23.518.027.0
2017-Sep-14 23:30N 38°17' W 030°30'1018.8
2017-Sep-14 22:59N 38°17' W 030°42'4119.1
2017-Sep-14 20:50N 38°19' W 031°35'819.1
2017-Sep-14 20:23N 38°19' W 031°46'15718.7
2017-Sep-14 12:00N 38°18' W 035°06'   180 / 241017.0 5.4 23.018.327.5

Dump ship's entire track history